Time;durP1;ratioP1;P1;durP2;ratioP2;P2;SDS_P1;SDS_P2;PMS_P1;PMS_P2;Temp;Humidity;BMP_temperature;BMP_pressure;BME280_temperature;BME280_humidity;BME280_pressure;Samples;Min_cycle;Max_cycle;Signal;HPM_P1;HPM_P2
2023/01/17 00:00:26;;;;;;;2.40;0.88;;;27.30;99.90;;;;;;5086339;28;20274;-84
2023/01/17 00:02:58;;;;;;;4.80;1.30;;;27.20;99.90;;;;;;5069304;28;20289;-84
2023/01/17 00:11:05;;;;;;;3.13;1.20;;;27.30;99.90;;;;;;5077419;28;20312;-85
2023/01/17 00:13:37;;;;;;;4.47;1.00;;;27.30;99.90;;;;;;5049679;28;20226;-83
2023/01/17 00:16:08;;;;;;;7.00;1.23;;;27.30;99.90;;;;;;5062668;28;20318;-84
2023/01/17 00:26:01;;;;;;;2.53;0.80;;;27.40;99.90;;;;;;5064331;28;20290;-86
2023/01/17 01:34:53;;;;;;;4.18;0.90;;;27.60;99.90;;;;;;5068610;28;20205;-88
2023/01/17 01:37:24;;;;;;;4.57;0.90;;;27.50;99.90;;;;;;5084545;28;20216;-87
2023/01/17 01:39:55;;;;;;;3.92;1.13;;;27.50;99.90;;;;;;5078802;28;20198;-88
2023/01/17 01:42:26;;;;;;;5.40;0.95;;;27.60;99.90;;;;;;5069556;28;20593;-85
2023/01/17 01:44:59;;;;;;;3.03;0.73;;;27.70;99.90;;;;;;5070762;28;20200;-85
2023/01/17 01:47:37;;;;;;;4.95;1.08;;;27.70;99.90;;;;;;5075320;28;20676;-86
2023/01/17 01:50:11;;;;;;;2.63;0.85;;;27.80;99.90;;;;;;5075519;28;20199;-85
2023/01/17 01:52:46;;;;;;;3.88;0.98;;;27.70;99.90;;;;;;5069177;28;20195;-86
2023/01/17 01:55:21;;;;;;;6.85;0.90;;;27.80;99.90;;;;;;5081897;28;20573;-85
2023/01/17 01:57:55;;;;;;;3.25;0.77;;;27.80;99.90;;;;;;5071608;28;20227;-86
2023/01/17 02:00:28;;;;;;;4.13;1.05;;;27.80;99.90;;;;;;5071376;28;20188;-84
2023/01/17 02:03:08;;;;;;;4.13;0.80;;;27.80;99.90;;;;;;5067406;28;20655;-85
2023/01/17 02:05:41;;;;;;;5.50;0.95;;;28.00;99.90;;;;;;5076321;28;20196;-85
2023/01/17 02:08:15;;;;;;;3.88;0.88;;;27.90;99.90;;;;;;5069626;28;20676;-85
2023/01/17 02:10:46;;;;;;;3.85;0.80;;;27.80;99.90;;;;;;5071821;28;20231;-83
2023/01/17 02:13:20;;;;;;;4.78;1.10;;;27.80;99.90;;;;;;5087701;28;20219;-87
2023/01/17 02:16:03;;;;;;;5.80;1.00;;;27.90;99.90;;;;;;5072963;28;20322;-84
2023/01/17 02:18:47;;;;;;;4.05;0.80;;;27.90;99.90;;;;;;5064001;28;20215;-86
2023/01/17 02:21:27;;;;;;;4.00;0.90;;;27.90;99.90;;;;;;5072056;28;20195;-86
2023/01/17 02:24:36;;;;;;;2.70;0.60;;;27.90;99.90;;;;;;5071406;28;20214;-86
2023/01/17 02:27:16;;;;;;;1.98;0.68;;;27.90;99.90;;;;;;5088381;28;20200;-84
2023/01/17 02:30:16;;;;;;;4.50;0.80;;;28.00;99.90;;;;;;5073826;28;20226;-84
2023/01/17 02:33:01;;;;;;;5.28;0.88;;;28.00;99.90;;;;;;5073201;28;20230;-85
2023/01/17 02:35:39;;;;;;;3.90;1.05;;;28.10;99.90;;;;;;5065796;28;20287;-86
2023/01/17 02:38:27;;;;;;;4.40;0.80;;;28.10;99.90;;;;;;5064163;28;20326;-86
2023/01/17 02:41:04;;;;;;;5.22;0.90;;;28.20;99.90;;;;;;5077364;28;20255;-85
2023/01/17 02:43:37;;;;;;;3.42;0.60;;;28.20;99.90;;;;;;5072887;28;20278;-88
2023/01/17 02:46:09;;;;;;;3.10;0.80;;;28.30;99.90;;;;;;5048573;28;20231;-86
2023/01/17 02:48:42;;;;;;;3.90;0.80;;;28.40;99.90;;;;;;5061405;28;22043;-85
2023/01/17 02:51:41;;;;;;;4.25;0.80;;;28.30;99.90;;;;;;5065589;28;20570;-85
2023/01/17 02:54:34;;;;;;;5.25;0.85;;;28.30;99.90;;;;;;5070504;28;20207;-86
2023/01/17 02:57:18;;;;;;;4.22;1.10;;;28.40;99.90;;;;;;5072364;28;20196;-87
2023/01/17 02:59:59;;;;;;;3.85;0.85;;;28.40;99.90;;;;;;5071487;28;20311;-87
2023/01/17 03:02:40;;;;;;;6.22;0.70;;;28.40;99.90;;;;;;5072811;28;20233;-86
2023/01/17 03:05:17;;;;;;;4.30;0.80;;;28.40;99.90;;;;;;5070849;28;20589;-88
2023/01/17 03:07:48;;;;;;;2.50;0.85;;;28.40;99.90;;;;;;5076290;28;20657;-83
2023/01/17 03:10:21;;;;;;;2.75;0.82;;;28.30;99.90;;;;;;5072739;28;20203;-85
2023/01/17 03:12:58;;;;;;;3.20;0.88;;;28.40;99.90;;;;;;5065732;28;20192;-84
2023/01/17 03:15:29;;;;;;;2.97;0.85;;;28.40;99.90;;;;;;5065919;28;20236;-84
2023/01/17 03:18:05;;;;;;;3.33;0.90;;;28.40;99.90;;;;;;5044835;28;20976;-85
2023/01/17 03:20:38;;;;;;;3.20;0.80;;;28.40;99.90;;;;;;5055546;28;20203;-84
2023/01/17 03:23:09;;;;;;;2.13;0.65;;;28.50;99.90;;;;;;5046786;28;20528;-85
2023/01/17 03:25:42;;;;;;;2.92;0.90;;;28.50;99.90;;;;;;5059583;28;20244;-82
2023/01/17 03:28:13;;;;;;;2.40;0.77;;;28.60;99.90;;;;;;5067072;28;20224;-84
2023/01/17 03:30:47;;;;;;;3.25;0.70;;;28.60;99.90;;;;;;5045366;28;20203;-82
2023/01/17 03:33:20;;;;;;;3.15;0.75;;;28.40;99.90;;;;;;5043187;28;20204;-83
2023/01/17 03:35:53;;;;;;;3.75;0.80;;;28.40;99.90;;;;;;5044630;28;20203;-84
2023/01/17 03:38:24;;;;;;;2.95;0.77;;;28.30;99.90;;;;;;5047925;28;20217;-84
2023/01/17 03:40:55;;;;;;;3.97;1.02;;;28.30;99.90;;;;;;5046528;28;20200;-85
2023/01/17 03:43:28;;;;;;;2.65;0.65;;;28.30;99.90;;;;;;5043861;28;20542;-85
2023/01/17 03:46:05;;;;;;;3.80;0.80;;;28.30;99.90;;;;;;5046198;28;20203;-84
2023/01/17 03:48:37;;;;;;;1.98;0.80;;;28.30;99.90;;;;;;5027996;28;20400;-84
2023/01/17 03:51:10;;;;;;;3.20;0.70;;;28.40;99.90;;;;;;5044336;28;20230;-84
2023/01/17 03:53:41;;;;;;;1.95;0.55;;;28.40;99.90;;;;;;5047144;28;20200;-84
2023/01/17 03:56:13;;;;;;;4.18;0.80;;;28.40;99.90;;;;;;5047718;28;20304;-84
2023/01/17 03:58:45;;;;;;;4.68;0.88;;;28.40;99.90;;;;;;5049011;28;20271;-84
2023/01/17 04:01:16;;;;;;;4.05;0.90;;;28.40;99.90;;;;;;5048214;28;20674;-84
2023/01/17 04:03:48;;;;;;;3.13;0.82;;;28.40;99.90;;;;;;5045149;28;20189;-85
2023/01/17 04:06:22;;;;;;;4.03;0.80;;;28.50;99.90;;;;;;5045640;28;20214;-83
2023/01/17 04:08:53;;;;;;;3.92;0.90;;;28.40;99.90;;;;;;5047617;28;20244;-85
2023/01/17 04:11:24;;;;;;;4.55;0.93;;;28.40;99.90;;;;;;5047585;28;20201;-86
2023/01/17 04:13:55;;;;;;;4.38;0.88;;;28.50;99.90;;;;;;5046345;28;20197;-84
2023/01/17 04:16:29;;;;;;;3.13;0.70;;;28.60;99.90;;;;;;5064228;28;20231;-85
2023/01/17 04:19:00;;;;;;;3.80;0.90;;;28.70;99.90;;;;;;5070391;28;20223;-85
2023/01/17 04:21:33;;;;;;;6.28;1.08;;;28.60;99.90;;;;;;5073260;28;20729;-84
2023/01/17 04:24:05;;;;;;;5.82;1.10;;;28.50;99.90;;;;;;5063446;28;20670;-86
2023/01/17 04:26:36;;;;;;;2.22;0.82;;;28.40;99.90;;;;;;5090670;28;20251;-86
2023/01/17 04:29:07;;;;;;;6.10;0.93;;;28.40;99.90;;;;;;5081769;28;20420;-86
2023/01/17 04:31:38;;;;;;;5.18;0.80;;;28.60;99.90;;;;;;5055016;28;20746;-84
2023/01/17 04:34:09;;;;;;;3.08;0.98;;;28.60;99.90;;;;;;5047605;28;20283;-84
2023/01/17 04:36:44;;;;;;;3.63;1.05;;;28.60;99.90;;;;;;5063998;28;20238;-85
2023/01/17 04:39:15;;;;;;;3.58;1.00;;;28.70;99.90;;;;;;5071200;28;20215;-85
2023/01/17 04:41:46;;;;;;;5.88;1.05;;;28.70;99.90;;;;;;5064378;28;20196;-85
2023/01/17 04:44:17;;;;;;;4.05;0.98;;;28.70;99.90;;;;;;5067738;28;20707;-84
2023/01/17 04:46:48;;;;;;;5.35;1.00;;;28.60;99.90;;;;;;5064312;28;20320;-85
2023/01/17 04:49:19;;;;;;;4.03;0.98;;;28.60;99.90;;;;;;5061933;28;20238;-86
2023/01/17 04:51:52;;;;;;;5.28;1.13;;;28.50;99.90;;;;;;5069873;28;20188;-85
2023/01/17 04:54:25;;;;;;;3.53;1.00;;;28.40;99.90;;;;;;5066735;28;20296;-85
2023/01/17 04:56:56;;;;;;;4.20;1.08;;;28.60;99.90;;;;;;5067243;28;20220;-84
2023/01/17 04:59:27;;;;;;;2.45;0.80;;;28.60;99.90;;;;;;5061368;28;20307;-86
2023/01/17 05:01:57;;;;;;;5.30;0.85;;;28.70;99.90;;;;;;5071483;28;20279;-86
2023/01/17 05:04:28;;;;;;;3.55;1.00;;;28.70;99.90;;;;;;5072306;28;20192;-83
2023/01/17 05:07:02;;;;;;;3.88;0.90;;;28.80;99.90;;;;;;5073539;28;20299;-83
2023/01/17 05:09:33;;;;;;;3.35;0.70;;;28.90;99.90;;;;;;5073178;28;20227;-83
2023/01/17 05:12:04;;;;;;;3.30;0.85;;;29.00;99.90;;;;;;5072531;28;20196;-83
2023/01/17 05:14:35;;;;;;;4.07;0.90;;;29.20;99.90;;;;;;5072127;28;20283;-83
2023/01/17 05:17:06;;;;;;;2.17;0.57;;;29.30;99.90;;;;;;5069569;28;20231;-83
2023/01/17 05:19:37;;;;;;;3.05;0.80;;;29.30;99.90;;;;;;5053984;28;20230;-82
2023/01/17 05:22:15;;;;;;;4.35;0.95;;;29.40;99.90;;;;;;5057879;28;20284;-83
2023/01/17 05:24:53;;;;;;;2.50;0.98;;;29.40;99.90;;;;;;5067223;28;20192;-85
2023/01/17 05:27:24;;;;;;;3.95;0.70;;;29.40;99.90;;;;;;5072324;28;20244;-85
2023/01/17 05:29:56;;;;;;;3.22;0.65;;;29.50;99.90;;;;;;5084709;28;20282;-83
2023/01/17 05:32:27;;;;;;;3.78;1.10;;;29.50;99.90;;;;;;5063706;28;20216;-86
2023/01/17 05:34:58;;;;;;;2.95;0.77;;;29.60;99.90;;;;;;5071266;28;20194;-85
2023/01/17 05:37:31;;;;;;;4.72;0.93;;;29.60;99.90;;;;;;5065152;28;20626;-85
2023/01/17 05:40:02;;;;;;;1.42;0.60;;;29.70;99.90;;;;;;5065420;28;20241;-84
2023/01/17 05:42:33;;;;;;;2.00;0.77;;;29.90;99.90;;;;;;5068620;28;20627;-83
2023/01/17 05:45:05;;;;;;;2.45;0.90;;;30.10;99.90;;;;;;5071015;28;20196;-84
2023/01/17 05:47:36;;;;;;;5.53;1.02;;;30.10;99.90;;;;;;5062133;28;20337;-84
2023/01/17 05:50:08;;;;;;;4.65;0.90;;;30.20;99.90;;;;;;5061925;28;20212;-84
2023/01/17 05:52:41;;;;;;;4.53;0.80;;;30.10;99.90;;;;;;5063891;28;20401;-83
2023/01/17 05:55:12;;;;;;;2.08;0.52;;;30.10;99.90;;;;;;5071786;28;20291;-83
2023/01/17 05:57:44;;;;;;;3.13;0.75;;;30.10;99.90;;;;;;5071833;28;20307;-83
2023/01/17 06:00:16;;;;;;;3.90;0.90;;;30.20;99.90;;;;;;5071538;28;20228;-83
2023/01/17 06:02:48;;;;;;;4.25;0.93;;;30.20;99.90;;;;;;5071587;28;20252;-84
2023/01/17 06:05:20;;;;;;;5.63;1.23;;;30.50;99.90;;;;;;5072551;28;20280;-83
2023/01/17 06:07:53;;;;;;;3.58;0.60;;;30.70;99.90;;;;;;5070020;28;20298;-83
2023/01/17 06:10:24;;;;;;;4.55;0.98;;;30.80;99.90;;;;;;5070871;28;20286;-82
2023/01/17 06:13:05;;;;;;;3.22;0.70;;;30.80;99.90;;;;;;5069385;28;20210;-84
2023/01/17 06:15:37;;;;;;;2.30;0.70;;;31.00;99.90;;;;;;5069970;28;20231;-85
2023/01/17 06:18:09;;;;;;;3.92;0.80;;;31.00;99.90;;;;;;5066445;28;20219;-85
2023/01/17 06:20:41;;;;;;;3.05;1.00;;;31.10;99.90;;;;;;5074245;28;20230;-84
2023/01/17 06:23:15;;;;;;;3.22;0.73;;;31.30;99.90;;;;;;5063769;28;20280;-84
2023/01/17 06:25:47;;;;;;;4.68;0.90;;;31.40;99.90;;;;;;5063807;28;20193;-84
2023/01/17 06:28:20;;;;;;;3.50;0.80;;;31.30;99.90;;;;;;5071759;28;20235;-84
2023/01/17 06:30:51;;;;;;;2.58;0.80;;;31.40;99.90;;;;;;5082910;28;20288;-85
2023/01/17 06:33:22;;;;;;;1.90;0.68;;;31.40;99.90;;;;;;5066810;28;20577;-86
2023/01/17 06:35:54;;;;;;;4.07;0.85;;;31.40;99.90;;;;;;5063476;28;20217;-86
2023/01/17 06:38:28;;;;;;;4.22;1.00;;;31.40;99.90;;;;;;5065392;28;20210;-86
2023/01/17 06:41:00;;;;;;;3.13;0.73;;;31.50;99.90;;;;;;5068009;28;20277;-86
2023/01/17 06:43:33;;;;;;;4.03;0.90;;;31.70;99.90;;;;;;5068946;28;20267;-85
2023/01/17 06:46:04;;;;;;;3.33;0.80;;;31.90;99.90;;;;;;5066885;28;20188;-85
2023/01/17 06:48:35;;;;;;;4.20;1.00;;;31.90;99.90;;;;;;5063687;28;20197;-86
2023/01/17 06:51:06;;;;;;;4.53;1.00;;;32.00;99.90;;;;;;5062640;28;20211;-85
2023/01/17 06:53:40;;;;;;;3.42;1.25;;;32.30;99.90;;;;;;5065601;28;20695;-86
2023/01/17 06:56:11;;;;;;;3.13;1.38;;;32.60;99.90;;;;;;5061894;28;20215;-85
2023/01/17 06:58:42;;;;;;;4.20;1.55;;;32.90;99.90;;;;;;5066049;28;20282;-86
2023/01/17 07:01:14;;;;;;;5.57;2.20;;;33.30;99.90;;;;;;5058020;28;20224;-86
2023/01/17 07:03:45;;;;;;;3.80;2.10;;;33.40;99.90;;;;;;5070946;28;20211;-81
2023/01/17 07:06:16;;;;;;;3.00;1.30;;;33.10;99.90;;;;;;5071275;28;20223;-84
2023/01/17 07:08:50;;;;;;;2.08;0.95;;;33.50;99.90;;;;;;5071429;28;20242;-85
2023/01/17 07:11:21;;;;;;;3.42;0.95;;;33.30;99.90;;;;;;5072517;28;20196;-86
2023/01/17 07:13:52;;;;;;;4.30;1.33;;;33.30;99.90;;;;;;5065846;28;20662;-85
2023/01/17 07:16:26;;;;;;;3.67;1.27;;;33.50;99.90;;;;;;5067155;28;20228;-85
2023/01/17 07:18:57;;;;;;;3.15;1.10;;;33.70;99.90;;;;;;5069607;28;20207;-85
2023/01/17 07:21:29;;;;;;;3.53;0.90;;;33.60;99.90;;;;;;5071202;28;20231;-85
2023/01/17 07:24:04;;;;;;;3.60;0.70;;;33.60;99.90;;;;;;5067991;28;20196;-85
2023/01/17 07:26:36;;;;;;;2.80;0.93;;;33.90;99.90;;;;;;5064053;28;20199;-85
2023/01/17 07:29:07;;;;;;;2.40;0.80;;;34.20;98.90;;;;;;5052704;28;20197;-85
2023/01/17 07:31:39;;;;;;;3.53;0.98;;;34.60;97.20;;;;;;5068534;28;20259;-85
2023/01/17 07:34:10;;;;;;;3.38;0.93;;;34.50;95.70;;;;;;5058885;28;20590;-84
2023/01/17 07:36:41;;;;;;;4.72;0.90;;;34.50;96.50;;;;;;5054673;28;20194;-85
2023/01/17 07:39:14;;;;;;;2.30;0.80;;;34.60;95.30;;;;;;5080659;28;20234;-86
2023/01/17 07:41:45;;;;;;;4.20;1.00;;;34.60;94.80;;;;;;5090695;28;20279;-84
2023/01/17 07:44:17;;;;;;;1.42;0.73;;;34.70;94.50;;;;;;5088446;28;20235;-86
2023/01/17 07:46:48;;;;;;;3.58;0.98;;;34.80;94.90;;;;;;5056258;28;20544;-86
2023/01/17 07:49:19;;;;;;;3.65;1.08;;;34.60;93.70;;;;;;5068673;28;20678;-85
2023/01/17 07:51:50;;;;;;;3.17;0.73;;;34.50;94.50;;;;;;5053127;28;20651;-85
2023/01/17 07:54:24;;;;;;;2.55;0.63;;;34.50;93.90;;;;;;5069040;28;20559;-87
2023/01/17 07:56:57;;;;;;;2.88;0.75;;;34.30;94.20;;;;;;5071445;28;20237;-86
2023/01/17 07:59:27;;;;;;;2.42;0.75;;;34.20;94.50;;;;;;5070310;28;20200;-84
2023/01/17 08:02:00;;;;;;;3.67;0.90;;;34.00;94.80;;;;;;5071478;28;20196;-87
2023/01/17 08:04:34;;;;;;;2.53;0.73;;;33.70;95.60;;;;;;5071708;28;20206;-88
2023/01/17 08:07:05;;;;;;;2.42;0.52;;;33.50;96.10;;;;;;5066713;28;20686;-87
2023/01/17 08:09:39;;;;;;;2.22;0.50;;;32.90;97.40;;;;;;5072435;28;20290;-86
2023/01/17 08:12:12;;;;;;;2.13;0.50;;;32.40;99.70;;;;;;5071848;28;20571;-86
2023/01/17 08:14:43;;;;;;;2.03;0.60;;;32.10;99.00;;;;;;5072478;28;20194;-86
2023/01/17 08:17:15;;;;;;;1.73;0.60;;;31.70;99.90;;;;;;5056746;28;20197;-87
2023/01/17 08:19:48;;;;;;;2.45;0.60;;;31.20;99.90;;;;;;5064307;28;20206;-87
2023/01/17 08:22:20;;;;;;;2.25;0.70;;;30.90;99.90;;;;;;5068795;28;20609;-88
2023/01/17 08:25:00;;;;;;;1.70;0.70;;;30.40;99.90;;;;;;5060591;28;20284;-87
2023/01/17 08:27:33;;;;;;;3.47;0.80;;;29.90;99.90;;;;;;5055895;28;20200;-89
2023/01/17 08:30:05;;;;;;;2.53;0.50;;;29.60;99.90;;;;;;5064958;28;20207;-87
2023/01/17 08:32:39;;;;;;;2.28;0.70;;;29.20;99.90;;;;;;5076249;28;20203;-86
2023/01/17 08:35:14;;;;;;;1.17;0.55;;;28.90;99.90;;;;;;5080631;28;20192;-90
2023/01/17 08:37:46;;;;;;;1.40;0.60;;;28.60;99.90;;;;;;5074302;28;20286;-88
2023/01/17 08:40:19;;;;;;;2.83;0.82;;;28.40;99.90;;;;;;5076839;28;20674;-86
2023/01/17 08:42:57;;;;;;;2.28;0.52;;;28.20;99.90;;;;;;5070775;28;20629;-85
2023/01/17 08:45:29;;;;;;;2.33;0.73;;;28.00;99.90;;;;;;5074274;28;20200;-85
2023/01/17 08:48:01;;;;;;;1.20;0.60;;;27.90;99.90;;;;;;5059286;28;20196;-84
2023/01/17 08:50:32;;;;;;;2.63;0.75;;;27.70;99.90;;;;;;5066183;28;20203;-87
2023/01/17 08:53:04;;;;;;;1.42;0.47;;;27.70;99.90;;;;;;5070243;28;20606;-85
2023/01/17 08:55:39;;;;;;;2.00;0.60;;;27.60;99.90;;;;;;5034980;28;20200;-84
2023/01/17 08:58:10;;;;;;;1.60;0.50;;;27.50;99.90;;;;;;5068053;28;20192;-84
2023/01/17 09:00:41;;;;;;;3.25;0.75;;;27.40;99.90;;;;;;5079284;28;20311;-86
2023/01/17 09:03:14;;;;;;;2.25;0.70;;;27.30;99.90;;;;;;5062355;28;20205;-86
2023/01/17 09:05:45;;;;;;;2.17;0.77;;;27.20;99.90;;;;;;5076985;28;20200;-85
2023/01/17 09:08:16;;;;;;;0.80;0.60;;;27.20;99.90;;;;;;5092743;28;20245;-86
2023/01/17 09:10:58;;;;;;;2.30;0.73;;;27.10;99.90;;;;;;5080650;28;20208;-85
2023/01/17 09:13:42;;;;;;;4.40;0.70;;;27.00;99.90;;;;;;5059583;28;20211;-86
2023/01/17 09:16:19;;;;;;;2.78;0.70;;;26.80;99.90;;;;;;5067301;28;20216;-87
2023/01/17 09:18:56;;;;;;;3.95;0.70;;;26.80;99.90;;;;;;5074230;28;20275;-87
2023/01/17 09:21:39;;;;;;;3.33;0.75;;;26.70;99.90;;;;;;5087724;28;20314;-85
2023/01/17 09:24:13;;;;;;;1.50;0.60;;;26.70;99.90;;;;;;5068891;28;20636;-86
2023/01/17 09:27:02;;;;;;;2.25;0.70;;;26.60;99.90;;;;;;5075003;28;20208;-86
2023/01/17 09:29:36;;;;;;;2.55;0.60;;;26.50;99.90;;;;;;5063771;28;20226;-86
2023/01/17 09:32:15;;;;;;;2.53;0.70;;;26.50;99.90;;;;;;5080102;28;20678;-85
2023/01/17 09:34:56;;;;;;;1.38;0.55;;;26.40;99.90;;;;;;5070880;28;20651;-85
2023/01/17 09:37:48;;;;;;;0.95;0.47;;;26.40;99.90;;;;;;5080587;28;20251;-85
2023/01/17 09:40:24;;;;;;;3.25;0.75;;;26.40;99.90;;;;;;5080508;28;20219;-85
2023/01/17 09:43:02;;;;;;;2.70;0.60;;;26.30;99.90;;;;;;5081021;28;20206;-84
2023/01/17 09:45:37;;;;;;;2.22;0.40;;;26.20;99.90;;;;;;5065303;28;20196;-86
2023/01/17 09:48:18;;;;;;;2.63;0.52;;;26.20;99.90;;;;;;5072414;28;20195;-84
2023/01/17 09:51:02;;;;;;;1.50;0.60;;;26.20;99.90;;;;;;5091743;28;20541;-85
2023/01/17 09:53:46;;;;;;;2.50;0.65;;;26.20;99.90;;;;;;5081253;28;20287;-86
2023/01/17 09:56:26;;;;;;;2.03;0.50;;;26.10;99.90;;;;;;5089268;28;20223;-85
2023/01/17 09:59:28;;;;;;;1.95;0.55;;;26.10;99.90;;;;;;5075247;28;20192;-85
2023/01/17 10:02:14;;;;;;;3.00;0.63;;;26.10;99.90;;;;;;5078917;28;20396;-85
2023/01/17 10:04:57;;;;;;;2.58;0.50;;;26.10;99.90;;;;;;5068941;28;20191;-86
2023/01/17 10:08:17;;;;;;;1.75;0.55;;;26.10;99.90;;;;;;5076784;28;20215;-85
2023/01/17 10:11:03;;;;;;;2.40;0.60;;;26.00;99.90;;;;;;5066391;28;20614;-85
2023/01/17 10:13:48;;;;;;;1.73;0.60;;;26.00;99.90;;;;;;5093662;28;20215;-85
2023/01/17 10:16:41;;;;;;;3.03;0.75;;;25.90;99.90;;;;;;5065072;28;20220;-85
2023/01/17 10:19:25;;;;;;;2.22;0.52;;;25.90;99.90;;;;;;5053031;28;20196;-84
2023/01/17 10:22:29;;;;;;;3.40;0.68;;;25.90;99.90;;;;;;5051951;28;20581;-85
2023/01/17 10:25:22;;;;;;;2.70;0.70;;;25.80;99.90;;;;;;5050482;28;20279;-85
2023/01/17 10:28:01;;;;;;;2.17;0.50;;;25.80;99.90;;;;;;5044139;28;20203;-84
2023/01/17 10:30:39;;;;;;;1.63;0.50;;;25.80;99.90;;;;;;5052199;28;20196;-84
2023/01/17 10:33:20;;;;;;;1.80;0.50;;;25.80;99.90;;;;;;5051711;28;20201;-84
2023/01/17 10:35:59;;;;;;;1.73;0.50;;;25.80;99.90;;;;;;5055086;28;20199;-82
2023/01/17 10:38:34;;;;;;;2.72;0.40;;;25.70;99.90;;;;;;5074602;28;20247;-84
2023/01/17 10:41:10;;;;;;;2.30;0.60;;;25.70;99.90;;;;;;5063931;28;20220;-84
2023/01/17 10:43:50;;;;;;;2.22;0.50;;;25.70;99.90;;;;;;5052837;28;20200;-84
2023/01/17 10:46:28;;;;;;;0.82;0.45;;;25.70;99.90;;;;;;5059094;28;20209;-85
2023/01/17 10:49:02;;;;;;;3.08;0.70;;;25.70;99.90;;;;;;5041950;28;20200;-84
2023/01/17 10:52:10;;;;;;;3.05;0.60;;;25.70;99.90;;;;;;5052853;28;20679;-84
2023/01/17 10:55:02;;;;;;;1.17;0.47;;;25.70;99.90;;;;;;5027910;28;20248;-83
2023/01/17 10:57:39;;;;;;;2.42;0.60;;;25.70;99.90;;;;;;5042352;28;20600;-85
2023/01/17 11:00:33;;;;;;;1.60;0.50;;;25.70;99.90;;;;;;5051656;28;20196;-84
2023/01/17 11:03:05;;;;;;;2.85;0.70;;;25.70;99.90;;;;;;5053607;28;20280;-84
2023/01/17 11:05:39;;;;;;;1.90;0.60;;;25.60;99.90;;;;;;5049334;28;20708;-84
2023/01/17 11:08:13;;;;;;;2.90;0.60;;;25.60;99.90;;;;;;5049243;28;20191;-85
2023/01/17 11:10:47;;;;;;;3.15;0.70;;;25.60;99.90;;;;;;5023202;28;20208;-84
2023/01/17 11:13:29;;;;;;;1.33;0.40;;;25.50;99.90;;;;;;5049277;28;20200;-84
2023/01/17 11:16:02;;;;;;;2.28;0.60;;;25.50;99.90;;;;;;5055962;28;20301;-85
2023/01/17 11:18:36;;;;;;;2.42;0.60;;;25.50;99.90;;;;;;5043683;28;20203;-84
2023/01/17 11:21:18;;;;;;;2.63;0.75;;;25.50;99.90;;;;;;5051389;28;20228;-84
2023/01/17 11:23:51;;;;;;;1.45;0.52;;;25.50;99.90;;;;;;5046356;28;20209;-85
2023/01/17 11:26:28;;;;;;;2.58;0.55;;;25.50;99.90;;;;;;5062056;28;20196;-85
2023/01/17 11:29:33;;;;;;;1.77;0.57;;;25.50;99.90;;;;;;5046684;28;20232;-84
2023/01/17 11:32:31;;;;;;;1.48;0.63;;;25.50;99.90;;;;;;5046741;28;20188;-85
2023/01/17 11:35:20;;;;;;;2.95;0.55;;;25.40;99.90;;;;;;5064975;28;20193;-85
2023/01/17 11:38:04;;;;;;;2.78;0.52;;;25.40;99.90;;;;;;5053787;28;20528;-84
2023/01/17 11:40:42;;;;;;;1.95;0.57;;;25.40;99.90;;;;;;5051428;28;20726;-84
2023/01/17 11:43:25;;;;;;;4.55;0.90;;;25.40;99.90;;;;;;5062426;28;20253;-85
2023/01/17 11:46:16;;;;;;;3.05;0.50;;;25.40;99.90;;;;;;5067623;28;20199;-85
2023/01/17 11:48:52;;;;;;;2.65;0.55;;;25.30;99.90;;;;;;5070404;28;20250;-84
2023/01/17 11:51:45;;;;;;;1.85;0.70;;;25.30;99.90;;;;;;5071006;28;20211;-85
2023/01/17 11:54:26;;;;;;;2.88;0.60;;;25.30;99.90;;;;;;5060008;28;20234;-86
2023/01/17 11:57:01;;;;;;;4.88;0.80;;;25.30;99.90;;;;;;5052647;28;20219;-84
2023/01/17 11:59:36;;;;;;;4.30;1.00;;;25.30;99.90;;;;;;5050354;28;20200;-85
2023/01/17 12:02:34;;;;;;;3.33;0.70;;;25.20;99.90;;;;;;5053970;28;20232;-84
2023/01/17 12:05:25;;;;;;;2.50;0.60;;;25.20;99.90;;;;;;5036061;28;20205;-85
2023/01/17 12:08:05;;;;;;;3.03;0.73;;;25.20;99.90;;;;;;5063193;28;20219;-85
2023/01/17 12:10:46;;;;;;;5.20;0.70;;;25.20;99.90;;;;;;5060457;28;20196;-85
2023/01/17 12:16:30;;;;;;;4.10;0.88;;;25.20;99.90;;;;;;5057064;28;20252;-84
2023/01/17 12:19:15;;;;;;;2.83;0.85;;;25.20;99.90;;;;;;5070200;28;20284;-85
2023/01/17 12:21:57;;;;;;;2.72;0.60;;;25.20;99.90;;;;;;5066818;28;20227;-80
2023/01/17 12:25:01;;;;;;;4.75;0.80;;;25.20;99.90;;;;;;5066631;28;20196;-84
2023/01/17 12:27:40;;;;;;;3.13;0.70;;;25.20;99.90;;;;;;5067439;28;20279;-83
2023/01/17 12:30:26;;;;;;;1.65;0.70;;;25.10;99.90;;;;;;5068558;28;20223;-85
2023/01/17 12:33:18;;;;;;;3.50;0.68;;;25.00;99.90;;;;;;5069538;28;20220;-84
2023/01/17 12:35:53;;;;;;;3.38;0.70;;;25.00;99.90;;;;;;5055529;28;20280;-84
2023/01/17 12:38:28;;;;;;;2.88;0.70;;;25.00;99.90;;;;;;5051771;28;20789;-84
2023/01/17 12:41:05;;;;;;;2.80;0.80;;;25.10;99.90;;;;;;5053693;28;20200;-84
2023/01/17 12:43:42;;;;;;;3.20;0.73;;;25.10;99.90;;;;;;5069823;28;20196;-84
2023/01/17 12:46:20;;;;;;;4.68;0.77;;;25.00;99.90;;;;;;5070338;28;20192;-84
2023/01/17 12:48:54;;;;;;;2.60;0.82;;;25.00;99.90;;;;;;5070266;28;20191;-84
2023/01/17 12:51:30;;;;;;;3.13;0.65;;;25.10;99.90;;;;;;5066202;28;20199;-83
2023/01/17 12:54:08;;;;;;;3.72;0.90;;;25.00;99.90;;;;;;5068983;28;20666;-83
2023/01/17 12:56:43;;;;;;;4.50;0.73;;;25.00;99.90;;;;;;5061781;28;20199;-84
2023/01/17 12:59:21;;;;;;;3.33;0.88;;;25.00;99.90;;;;;;5069950;28;20560;-85
2023/01/17 13:01:58;;;;;;;2.42;0.68;;;25.00;99.90;;;;;;5058874;28;20243;-85
2023/01/17 13:04:35;;;;;;;2.67;0.80;;;24.90;99.90;;;;;;5063839;28;20198;-84
2023/01/17 13:07:17;;;;;;;2.85;0.63;;;24.90;99.90;;;;;;5076350;28;20199;-83
2023/01/17 13:09:53;;;;;;;3.33;0.70;;;24.90;99.90;;;;;;5068058;28;20279;-83
2023/01/17 13:12:26;;;;;;;3.60;0.90;;;24.90;99.90;;;;;;5065020;28;20688;-83
2023/01/17 13:15:01;;;;;;;2.28;0.68;;;24.90;99.90;;;;;;5049858;28;20562;-83
2023/01/17 13:17:43;;;;;;;2.85;0.80;;;24.90;99.90;;;;;;5065778;28;20231;-82
2023/01/17 13:20:22;;;;;;;2.83;0.82;;;24.90;99.90;;;;;;5055144;28;20196;-83
2023/01/17 13:22:55;;;;;;;3.67;0.95;;;24.90;99.90;;;;;;5069423;28;20219;-83
2023/01/17 13:25:40;;;;;;;3.13;0.88;;;24.90;99.90;;;;;;5073626;28;20199;-85
2023/01/17 13:28:23;;;;;;;2.47;0.73;;;24.80;99.90;;;;;;5060477;28;20222;-85
2023/01/17 13:31:14;;;;;;;2.00;0.85;;;24.90;99.90;;;;;;5074708;28;20194;-86
2023/01/17 13:34:06;;;;;;;3.50;0.95;;;24.80;99.90;;;;;;5094407;28;20195;-85
2023/01/17 13:36:47;;;;;;;4.88;0.88;;;24.80;99.90;;;;;;5085204;28;20682;-86
2023/01/17 13:39:48;;;;;;;3.55;1.08;;;24.80;99.90;;;;;;5069658;28;20673;-86
2023/01/17 13:42:27;;;;;;;3.85;0.77;;;24.80;99.90;;;;;;5073243;28;20230;-86
2023/01/17 13:44:59;;;;;;;3.55;1.08;;;24.80;99.90;;;;;;5073443;28;20198;-85
2023/01/17 13:47:47;;;;;;;4.15;0.82;;;24.80;99.90;;;;;;5071753;28;20222;-85
2023/01/17 13:54:31;;;;;;;4.60;0.85;;;24.70;99.90;;;;;;5085071;28;20245;-85
2023/01/17 13:57:38;;;;;;;2.50;0.90;;;24.70;99.90;;;;;;5073058;28;20600;-85
2023/01/17 14:00:51;;;;;;;2.97;0.80;;;24.70;99.90;;;;;;5073126;28;20196;-85
2023/01/17 14:03:53;;;;;;;3.63;0.90;;;24.70;99.90;;;;;;5014963;28;20265;-85
2023/01/17 14:06:39;;;;;;;2.65;0.90;;;24.60;99.90;;;;;;5072823;28;20723;-85
2023/01/17 14:09:22;;;;;;;3.08;0.90;;;24.60;99.90;;;;;;5054163;28;20188;-86
2023/01/17 14:12:06;;;;;;;2.95;0.80;;;24.60;99.90;;;;;;5067698;28;20562;-85
2023/01/17 14:14:57;;;;;;;2.97;0.93;;;24.60;99.90;;;;;;5060701;28;20283;-86
2023/01/17 14:17:57;;;;;;;4.78;0.90;;;24.60;99.90;;;;;;5070752;28;20223;-85
2023/01/17 14:20:50;;;;;;;3.78;1.00;;;24.60;99.90;;;;;;5066020;28;20717;-85
2023/01/17 14:24:02;;;;;;;4.25;1.00;;;24.50;99.90;;;;;;5041723;28;20231;-85
2023/01/17 14:26:53;;;;;;;4.25;0.93;;;24.60;99.90;;;;;;5071597;28;20226;-85
2023/01/17 14:29:57;;;;;;;4.30;0.90;;;24.50;99.90;;;;;;5071533;28;20196;-85
2023/01/17 14:32:31;;;;;;;3.38;0.95;;;24.50;99.90;;;;;;5072558;28;20196;-86
2023/01/17 14:35:02;;;;;;;2.70;0.70;;;24.50;99.90;;;;;;5071714;28;20294;-85
2023/01/17 14:37:47;;;;;;;3.90;0.75;;;24.40;99.90;;;;;;5071853;28;20200;-85
2023/01/17 14:40:26;;;;;;;3.78;0.98;;;24.30;99.90;;;;;;5064219;28;20192;-85
2023/01/17 14:43:02;;;;;;;2.95;0.70;;;24.40;99.90;;;;;;5051935;28;20212;-85
2023/01/17 14:45:34;;;;;;;3.08;0.60;;;24.30;99.90;;;;;;5077177;28;20196;-86
2023/01/17 14:48:08;;;;;;;5.70;1.25;;;24.30;99.90;;;;;;5070925;28;20196;-86
2023/01/17 14:50:43;;;;;;;4.65;1.20;;;24.30;99.90;;;;;;5070434;28;20248;-86
2023/01/17 14:53:21;;;;;;;4.35;0.98;;;24.30;99.90;;;;;;5071394;28;20195;-86
2023/01/17 14:56:02;;;;;;;3.22;1.00;;;24.30;99.90;;;;;;5072779;28;20663;-86
2023/01/17 14:58:35;;;;;;;5.72;1.00;;;24.30;99.90;;;;;;5071055;28;20282;-83
2023/01/17 15:01:11;;;;;;;3.10;0.90;;;24.20;99.90;;;;;;5081606;28;20645;-84
2023/01/17 15:03:47;;;;;;;4.28;1.05;;;24.20;99.90;;;;;;5070223;28;20211;-83
2023/01/17 15:06:21;;;;;;;4.05;0.77;;;24.20;99.90;;;;;;5072275;28;20198;-83